PWSweather.com
Personal Weather Stations
Station Observations
KTXROWLE6
Ravens Nest, Rowlett, TX 75089

Ravens NestRowlett, TX 75089

Lat: 32.93105, Lon: -96.57368

Elevation: 556

Station Type: Davis Vantage Pro2 6152

http://rowlett.ws

High Low Average
Temperature 96.4°F35.8°C 79.4°F26.3°C 87.4°F30.8°C
Dew Point 73.4°F23.0°C 67.2°F19.6°C 70.6°F21.4°C
Winds 8.7 mph 14.0 kmh 1.5 mph 2.4 kmh 4.0 mph WSW6.4 kmh WSW
Wind Gusts 17.0 mph27.4 kmh 4.0 mph6.4 kmh 9.0 mph14.5 kmh
Humidity 75% 42% 59%
Pressure 29.97 in1014.9 mb 29.88 in1011.9 mb -
Precipitation 0.00 in0.0 mm - -
Hour Temp Dew Point Humidity Winds Wind Gusts Pressure Precip Precip Rate Daily Precip Total
12:00 AM 81.9°F27.7°C 69.8°F21.0°C 67% 2.4 mph SW3.9 kmh SW 5.0 mph8.0 kmh 29.89 in1012.2 mb 0.00 in0.0 mm 0.00 in0.0 mm 0.00 in0.0 mm
12:05 AM 81.8°F27.7°C 70.2°F21.2°C 68% 2.1 mph SW3.4 kmh SW 5.0 mph8.0 kmh 29.89 in1012.2 mb 0.00 in0.0 mm 0.00 in0.0 mm 0.00 in0.0 mm
12:10 AM 81.8°F27.7°C 70.2°F21.2°C 68% 3.2 mph SW5.1 kmh SW 8.0 mph12.9 kmh 29.89 in1012.2 mb 0.00 in0.0 mm 0.00 in0.0 mm 0.00 in0.0 mm
12:15 AM 81.8°F27.7°C 70.6°F21.4°C 69% 3.1 mph SW5.0 kmh SW 8.0 mph12.9 kmh 29.89 in1012.2 mb 0.00 in0.0 mm 0.00 in0.0 mm 0.00 in0.0 mm
12:20 AM 81.7°F27.6°C 70.5°F21.4°C 69% 2.9 mph SW4.7 kmh SW 8.0 mph12.9 kmh 29.89 in1012.2 mb 0.00 in0.0 mm 0.00 in0.0 mm 0.00 in0.0 mm
12:25 AM 81.6°F27.6°C 70.4°F21.3°C 69% 3.1 mph SW5.0 kmh SW 7.0 mph11.3 kmh 29.89 in1012.2 mb 0.00 in0.0 mm 0.00 in0.0 mm 0.00 in0.0 mm
12:30 AM 81.5°F27.5°C 70.3°F21.3°C 69% 2.7 mph SW4.3 kmh SW 7.0 mph11.3 kmh 29.89 in1012.2 mb 0.00 in0.0 mm 0.00 in0.0 mm 0.00 in0.0 mm
12:35 AM 81.4°F27.4°C 70.7°F21.5°C 70% 2.4 mph SW3.9 kmh SW 6.0 mph9.7 kmh 29.89 in1012.2 mb 0.00 in0.0 mm 0.00 in0.0 mm 0.00 in0.0 mm
12:40 AM 81.3°F27.4°C 70.6°F21.4°C 70% 3.0 mph SW4.8 kmh SW 7.0 mph11.3 kmh 29.89 in1012.2 mb 0.00 in0.0 mm 0.00 in0.0 mm 0.00 in0.0 mm
12:45 AM 81.2°F27.3°C 70.5°F21.4°C 70% 1.9 mph WSW3.1 kmh WSW 7.0 mph11.3 kmh 29.88 in1011.9 mb 0.00 in0.0 mm 0.00 in0.0 mm 0.00 in0.0 mm
12:50 AM 81.2°F27.3°C 70.9°F21.6°C 71% 2.7 mph WSW4.3 kmh WSW 5.0 mph8.0 kmh 29.88 in1011.9 mb 0.00 in0.0 mm 0.00 in0.0 mm 0.00 in0.0 mm
12:55 AM 81.1°F27.3°C 70.8°F21.6°C 71% 2.6 mph WSW4.2 kmh WSW 7.0 mph11.3 kmh 29.88 in1011.9 mb 0.00 in0.0 mm 0.00 in0.0 mm 0.00 in0.0 mm
01:00 AM 81.0°F27.2°C 70.7°F21.5°C 71% 1.9 mph SW3.1 kmh SW 7.0 mph11.3 kmh 29.88 in1011.9 mb 0.00 in0.0 mm 0.00 in0.0 mm 0.00 in0.0 mm
01:05 AM 80.9°F27.2°C 71.0°F21.7°C 72% 2.0 mph SW3.2 kmh SW 5.0 mph8.0 kmh 29.88 in1011.9 mb 0.00 in0.0 mm 0.00 in0.0 mm 0.00 in0.0 mm
01:10 AM 80.8°F27.1°C 70.9°F21.6°C 72% 1.9 mph SW3.1 kmh SW 5.0 mph8.0 kmh 29.89 in1012.2 mb 0.00 in0.0 mm 0.00 in0.0 mm 0.00 in0.0 mm
01:15 AM 80.8°F27.1°C 70.9°F21.6°C 72% 2.0 mph SW3.2 kmh SW 6.0 mph9.7 kmh 29.89 in1012.2 mb 0.00 in0.0 mm 0.00 in0.0 mm 0.00 in0.0 mm
01:20 AM 80.8°F27.1°C 70.9°F21.6°C 72% 2.6 mph SW4.2 kmh SW 6.0 mph9.7 kmh 29.88 in1011.9 mb 0.00 in0.0 mm 0.00 in0.0 mm 0.00 in0.0 mm
01:25 AM 80.7°F27.1°C 71.2°F21.8°C 73% 2.2 mph SW3.5 kmh SW 6.0 mph9.7 kmh 29.88 in1011.9 mb 0.00 in0.0 mm 0.00 in0.0 mm 0.00 in0.0 mm
01:30 AM 80.6°F27.0°C 71.1°F21.7°C 73% 1.8 mph SW2.9 kmh SW 6.0 mph9.7 kmh 29.88 in1011.9 mb 0.00 in0.0 mm 0.00 in0.0 mm 0.00 in0.0 mm
01:35 AM 80.5°F26.9°C 71.0°F21.7°C 73% 1.7 mph SW2.7 kmh SW 6.0 mph9.7 kmh 29.88 in1011.9 mb 0.00 in0.0 mm 0.00 in0.0 mm 0.00 in0.0 mm
01:40 AM 80.5°F26.9°C 71.0°F21.7°C 73% 2.0 mph SW3.2 kmh SW 5.0 mph8.0 kmh 29.88 in1011.9 mb 0.00 in0.0 mm 0.00 in0.0 mm 0.00 in0.0 mm
01:45 AM 80.5°F26.9°C 71.0°F21.7°C 73% 2.2 mph WSW3.5 kmh WSW 6.0 mph9.7 kmh 29.88 in1011.9 mb 0.00 in0.0 mm 0.00 in0.0 mm 0.00 in0.0 mm
01:50 AM 80.4°F26.9°C 70.9°F21.6°C 73% 2.0 mph WSW3.2 kmh WSW 6.0 mph9.7 kmh 29.88 in1011.9 mb 0.00 in0.0 mm 0.00 in0.0 mm 0.00 in0.0 mm
01:55 AM 80.3°F26.8°C 71.2°F21.8°C 74% 1.5 mph SW2.4 kmh SW 5.0 mph8.0 kmh 29.88 in1011.9 mb 0.00 in0.0 mm 0.00 in0.0 mm 0.00 in0.0 mm
02:00 AM 80.3°F26.8°C 71.2°F21.8°C 74% 2.2 mph SW3.5 kmh SW 5.0 mph8.0 kmh 29.88 in1011.9 mb 0.00 in0.0 mm 0.00 in0.0 mm 0.00 in0.0 mm
02:05 AM 80.3°F26.8°C 71.2°F21.8°C 74% 2.1 mph SW3.4 kmh SW 5.0 mph8.0 kmh 29.88 in1011.9 mb 0.00 in0.0 mm 0.00 in0.0 mm 0.00 in0.0 mm
02:10 AM 80.3°F26.8°C 71.2°F21.8°C 74% 1.8 mph SW2.9 kmh SW 5.0 mph8.0 kmh 29.88 in1011.9 mb 0.00 in0.0 mm 0.00 in0.0 mm 0.00 in0.0 mm
02:15 AM 80.3°F26.8°C 71.2°F21.8°C 74% 2.0 mph SW3.2 kmh SW 4.0 mph6.4 kmh 29.88 in1011.9 mb 0.00 in0.0 mm 0.00 in0.0 mm 0.00 in0.0 mm
02:20 AM 80.3°F26.8°C 71.2°F21.8°C 74% 2.1 mph SW3.4 kmh SW 5.0 mph8.0 kmh 29.88 in1011.9 mb 0.00 in0.0 mm 0.00 in0.0 mm 0.00 in0.0 mm
02:25 AM 80.3°F26.8°C 71.2°F21.8°C 74% 2.4 mph SW3.9 kmh SW 5.0 mph8.0 kmh 29.88 in1011.9 mb 0.00 in0.0 mm 0.00 in0.0 mm 0.00 in0.0 mm
02:30 AM 80.3°F26.8°C 71.2°F21.8°C 74% 2.8 mph SW4.5 kmh SW 7.0 mph11.3 kmh 29.88 in1011.9 mb 0.00 in0.0 mm 0.00 in0.0 mm 0.00 in0.0 mm
02:35 AM 80.2°F26.8°C 71.1°F21.7°C 74% 1.8 mph WSW2.9 kmh WSW 7.0 mph11.3 kmh 29.88 in1011.9 mb 0.00 in0.0 mm 0.00 in0.0 mm 0.00 in0.0 mm
02:40 AM 80.2°F26.8°C 71.1°F21.7°C 74% 2.4 mph SW3.9 kmh SW 5.0 mph8.0 kmh 29.89 in1012.2 mb 0.00 in0.0 mm 0.00 in0.0 mm 0.00 in0.0 mm
02:45 AM 80.2°F26.8°C 71.1°F21.7°C 74% 2.5 mph SW4.0 kmh SW 6.0 mph9.7 kmh 29.88 in1011.9 mb 0.00 in0.0 mm 0.00 in0.0 mm 0.00 in0.0 mm
02:50 AM 80.2°F26.8°C 71.1°F21.7°C 74% 3.1 mph SW5.0 kmh SW 7.0 mph11.3 kmh 29.89 in1012.2 mb 0.00 in0.0 mm 0.00 in0.0 mm 0.00 in0.0 mm
02:55 AM 80.2°F26.8°C 71.1°F21.7°C 74% 2.5 mph SW4.0 kmh SW 8.0 mph12.9 kmh 29.89 in1012.2 mb 0.00 in0.0 mm 0.00 in0.0 mm 0.00 in0.0 mm
03:00 AM 80.1°F26.7°C 71.0°F21.7°C 74% 1.8 mph SW2.9 kmh SW 8.0 mph12.9 kmh 29.89 in1012.2 mb 0.00 in0.0 mm 0.00 in0.0 mm 0.00 in0.0 mm
03:05 AM 80.1°F26.7°C 71.0°F21.7°C 74% 2.7 mph SW4.3 kmh SW 6.0 mph9.7 kmh 29.89 in1012.2 mb 0.00 in0.0 mm 0.00 in0.0 mm 0.00 in0.0 mm
03:10 AM 80.2°F26.8°C 71.5°F21.9°C 75% 2.1 mph WSW3.4 kmh WSW 6.0 mph9.7 kmh 29.89 in1012.2 mb 0.00 in0.0 mm 0.00 in0.0 mm 0.00 in0.0 mm
03:15 AM 80.1°F26.7°C 71.4°F21.9°C 75% 2.2 mph SW3.5 kmh SW 5.0 mph8.0 kmh 29.89 in1012.2 mb 0.00 in0.0 mm 0.00 in0.0 mm 0.00 in0.0 mm
03:20 AM 80.0°F26.7°C 71.3°F21.8°C 75% 2.4 mph W3.9 kmh W 6.0 mph9.7 kmh 29.89 in1012.2 mb 0.00 in0.0 mm 0.00 in0.0 mm 0.00 in0.0 mm
03:25 AM 80.1°F26.7°C 71.4°F21.9°C 75% 2.4 mph WSW3.9 kmh WSW 6.0 mph9.7 kmh 29.89 in1012.2 mb 0.00 in0.0 mm 0.00 in0.0 mm 0.00 in0.0 mm
03:30 AM 80.0°F26.7°C 71.3°F21.8°C 75% 1.9 mph SW3.1 kmh SW 7.0 mph11.3 kmh 29.89 in1012.2 mb 0.00 in0.0 mm 0.00 in0.0 mm 0.00 in0.0 mm
03:35 AM 80.1°F26.7°C 71.4°F21.9°C 75% 2.1 mph SW3.4 kmh SW 7.0 mph11.3 kmh 29.89 in1012.2 mb 0.00 in0.0 mm 0.00 in0.0 mm 0.00 in0.0 mm
03:40 AM 80.1°F26.7°C 71.0°F21.7°C 74% 2.0 mph WSW3.2 kmh WSW 5.0 mph8.0 kmh 29.89 in1012.2 mb 0.00 in0.0 mm 0.00 in0.0 mm 0.00 in0.0 mm
03:45 AM 80.1°F26.7°C 71.4°F21.9°C 75% 2.2 mph WSW3.5 kmh WSW 7.0 mph11.3 kmh 29.89 in1012.2 mb 0.00 in0.0 mm 0.00 in0.0 mm 0.00 in0.0 mm
03:50 AM 80.1°F26.7°C 71.0°F21.7°C 74% 1.5 mph W2.4 kmh W 7.0 mph11.3 kmh 29.89 in1012.2 mb 0.00 in0.0 mm 0.00 in0.0 mm 0.00 in0.0 mm
03:55 AM 80.0°F26.7°C 70.9°F21.6°C 74% 2.1 mph WSW3.4 kmh WSW 8.0 mph12.9 kmh 29.89 in1012.2 mb 0.00 in0.0 mm 0.00 in0.0 mm 0.00 in0.0 mm
04:00 AM 80.1°F26.7°C 71.0°F21.7°C 74% 2.3 mph WSW3.7 kmh WSW 8.0 mph12.9 kmh 29.89 in1012.2 mb 0.00 in0.0 mm 0.00 in0.0 mm 0.00 in0.0 mm
04:05 AM 80.1°F26.7°C 71.0°F21.7°C 74% 2.0 mph WSW3.2 kmh WSW 6.0 mph9.7 kmh 29.89 in1012.2 mb 0.00 in0.0 mm 0.00 in0.0 mm 0.00 in0.0 mm
04:10 AM 80.0°F26.7°C 70.9°F21.6°C 74% 2.0 mph WSW3.2 kmh WSW 6.0 mph9.7 kmh 29.89 in1012.2 mb 0.00 in0.0 mm 0.00 in0.0 mm 0.00 in0.0 mm
04:15 AM 80.0°F26.7°C 70.9°F21.6°C 74% 1.8 mph WSW2.9 kmh WSW 6.0 mph9.7 kmh 29.90 in1012.5 mb 0.00 in0.0 mm 0.00 in0.0 mm 0.00 in0.0 mm
04:20 AM 79.9°F26.6°C 70.9°F21.6°C 74% 2.4 mph W3.9 kmh W 6.0 mph9.7 kmh 29.90 in1012.5 mb 0.00 in0.0 mm 0.00 in0.0 mm 0.00 in0.0 mm
04:25 AM 79.9°F26.6°C 70.9°F21.6°C 74% 2.7 mph W4.3 kmh W 6.0 mph9.7 kmh 29.90 in1012.5 mb 0.00 in0.0 mm 0.00 in0.0 mm 0.00 in0.0 mm
04:30 AM 80.0°F26.7°C 70.9°F21.6°C 74% 3.4 mph W5.5 kmh W 8.0 mph12.9 kmh 29.90 in1012.5 mb 0.00 in0.0 mm 0.00 in0.0 mm 0.00 in0.0 mm
04:35 AM 80.0°F26.7°C 70.9°F21.6°C 74% 2.8 mph W4.5 kmh W 8.0 mph12.9 kmh 29.90 in1012.5 mb 0.00 in0.0 mm 0.00 in0.0 mm 0.00 in0.0 mm
04:40 AM 79.9°F26.6°C 70.9°F21.6°C 74% 4.0 mph W6.4 kmh W 10.0 mph16.1 kmh 29.90 in1012.5 mb 0.00 in0.0 mm 0.00 in0.0 mm 0.00 in0.0 mm
04:45 AM 79.9°F26.6°C 70.9°F21.6°C 74% 2.8 mph W4.5 kmh W 10.0 mph16.1 kmh 29.91 in1012.9 mb 0.00 in0.0 mm 0.00 in0.0 mm 0.00 in0.0 mm
04:50 AM 79.9°F26.6°C 70.9°F21.6°C 74% 2.4 mph W3.9 kmh W 10.0 mph16.1 kmh 29.91 in1012.9 mb 0.00 in0.0 mm 0.00 in0.0 mm 0.00 in0.0 mm
04:55 AM 79.8°F26.6°C 70.8°F21.6°C 74% 3.0 mph W4.8 kmh W 7.0 mph11.3 kmh 29.90 in1012.5 mb 0.00 in0.0 mm 0.00 in0.0 mm 0.00 in0.0 mm
05:00 AM 79.8°F26.6°C 70.8°F21.6°C 74% 2.9 mph W4.7 kmh W 7.0 mph11.3 kmh 29.91 in1012.9 mb 0.00 in0.0 mm 0.00 in0.0 mm 0.00 in0.0 mm
05:05 AM 79.7°F26.5°C 70.7°F21.5°C 74% 2.9 mph W4.7 kmh W 8.0 mph12.9 kmh 29.91 in1012.9 mb 0.00 in0.0 mm 0.00 in0.0 mm 0.00 in0.0 mm
05:10 AM 79.7°F26.5°C 70.7°F21.5°C 74% 3.2 mph W5.1 kmh W 9.0 mph14.5 kmh 29.91 in1012.9 mb 0.00 in0.0 mm 0.00 in0.0 mm 0.00 in0.0 mm
05:15 AM 79.7°F26.5°C 70.7°F21.5°C 74% 2.6 mph WSW4.2 kmh WSW 9.0 mph14.5 kmh 29.91 in1012.9 mb 0.00 in0.0 mm 0.00 in0.0 mm 0.00 in0.0 mm
05:20 AM 79.6°F26.4°C 70.6°F21.4°C 74% 2.9 mph W4.7 kmh W 8.0 mph12.9 kmh 29.91 in1012.9 mb 0.00 in0.0 mm 0.00 in0.0 mm 0.00 in0.0 mm
05:25 AM 79.6°F26.4°C 70.6°F21.4°C 74% 3.8 mph W6.1 kmh W 9.0 mph14.5 kmh 29.92 in1013.2 mb 0.00 in0.0 mm 0.00 in0.0 mm 0.00 in0.0 mm
05:30 AM 79.6°F26.4°C 70.6°F21.4°C 74% 2.9 mph WNW4.7 kmh WNW 9.0 mph14.5 kmh 29.92 in1013.2 mb 0.00 in0.0 mm 0.00 in0.0 mm 0.00 in0.0 mm
05:35 AM 79.6°F26.4°C 70.6°F21.4°C 74% 2.4 mph W3.9 kmh W 7.0 mph11.3 kmh 29.92 in1013.2 mb 0.00 in0.0 mm 0.00 in0.0 mm 0.00 in0.0 mm
05:40 AM 79.5°F26.4°C 70.5°F21.4°C 74% 3.2 mph W5.1 kmh W 6.0 mph9.7 kmh 29.92 in1013.2 mb 0.00 in0.0 mm 0.00 in0.0 mm 0.00 in0.0 mm
05:45 AM 79.5°F26.4°C 70.5°F21.4°C 74% 3.1 mph W5.0 kmh W 7.0 mph11.3 kmh 29.92 in1013.2 mb 0.00 in0.0 mm 0.00 in0.0 mm 0.00 in0.0 mm
05:50 AM 79.6°F26.4°C 70.6°F21.4°C 74% 3.8 mph W6.1 kmh W 10.0 mph16.1 kmh 29.92 in1013.2 mb 0.00 in0.0 mm 0.00 in0.0 mm 0.00 in0.0 mm
05:55 AM 79.4°F26.3°C 70.4°F21.3°C 74% 2.6 mph W4.2 kmh W 10.0 mph16.1 kmh 29.92 in1013.2 mb 0.00 in0.0 mm 0.00 in0.0 mm 0.00 in0.0 mm
06:00 AM 79.5°F26.4°C 70.5°F21.4°C 74% 2.8 mph W4.5 kmh W 8.0 mph12.9 kmh 29.92 in1013.2 mb 0.00 in0.0 mm 0.00 in0.0 mm 0.00 in0.0 mm
06:05 AM 79.6°F26.4°C 70.6°F21.4°C 74% 3.2 mph WSW5.1 kmh WSW 8.0 mph12.9 kmh 29.93 in1013.5 mb 0.00 in0.0 mm 0.00 in0.0 mm 0.00 in0.0 mm
06:10 AM 79.6°F26.4°C 70.6°F21.4°C 74% 3.0 mph W4.8 kmh W 7.0 mph11.3 kmh 29.93 in1013.5 mb 0.00 in0.0 mm 0.00 in0.0 mm 0.00 in0.0 mm
06:15 AM 79.7°F26.5°C 70.7°F21.5°C 74% 3.3 mph W5.3 kmh W 6.0 mph9.7 kmh 29.93 in1013.5 mb 0.00 in0.0 mm 0.00 in0.0 mm 0.00 in0.0 mm
06:20 AM 79.9°F26.6°C 70.9°F21.6°C 74% 3.1 mph W5.0 kmh W 7.0 mph11.3 kmh 29.93 in1013.5 mb 0.00 in0.0 mm 0.00 in0.0 mm 0.00 in0.0 mm
06:25 AM 80.0°F26.7°C 70.5°F21.4°C 73% 3.9 mph W6.3 kmh W 10.0 mph16.1 kmh 29.93 in1013.5 mb 0.00 in0.0 mm 0.00 in0.0 mm 0.00 in0.0 mm
06:30 AM 80.2°F26.8°C 70.7°F21.5°C 73% 3.6 mph W5.8 kmh W 10.0 mph16.1 kmh 29.93 in1013.5 mb 0.00 in0.0 mm 0.00 in0.0 mm 0.00 in0.0 mm
06:35 AM 80.3°F26.8°C 70.8°F21.6°C 73% 3.9 mph W6.3 kmh W 7.0 mph11.3 kmh 29.93 in1013.5 mb 0.00 in0.0 mm 0.00 in0.0 mm 0.00 in0.0 mm
06:40 AM 80.5°F26.9°C 70.6°F21.4°C 72% 4.3 mph W6.9 kmh W 10.0 mph16.1 kmh 29.94 in1013.9 mb 0.00 in0.0 mm 0.00 in0.0 mm 0.00 in0.0 mm
06:45 AM 80.6°F27.0°C 70.7°F21.5°C 72% 5.2 mph W8.4 kmh W 11.0 mph17.7 kmh 29.94 in1013.9 mb 0.00 in0.0 mm 0.00 in0.0 mm 0.00 in0.0 mm
06:50 AM 80.8°F27.1°C 70.5°F21.4°C 71% 4.6 mph W7.4 kmh W 11.0 mph17.7 kmh 29.94 in1013.9 mb 0.00 in0.0 mm 0.00 in0.0 mm 0.00 in0.0 mm
06:55 AM 81.0°F27.2°C 70.7°F21.5°C 71% 3.9 mph W6.3 kmh W 9.0 mph14.5 kmh 29.94 in1013.9 mb 0.00 in0.0 mm 0.00 in0.0 mm 0.00 in0.0 mm
07:00 AM 81.2°F27.3°C 70.9°F21.6°C 71% 4.0 mph W6.4 kmh W 9.0 mph14.5 kmh 29.94 in1013.9 mb 0.00 in0.0 mm 0.00 in0.0 mm 0.00 in0.0 mm
07:05 AM 81.5°F27.5°C 71.2°F21.8°C 71% 3.4 mph W5.5 kmh W 9.0 mph14.5 kmh 29.94 in1013.9 mb 0.00 in0.0 mm 0.00 in0.0 mm 0.00 in0.0 mm
07:10 AM 81.8°F27.7°C 70.6°F21.4°C 69% 3.9 mph W6.3 kmh W 9.0 mph14.5 kmh 29.94 in1013.9 mb 0.00 in0.0 mm 0.00 in0.0 mm 0.00 in0.0 mm
07:15 AM 82.0°F27.8°C 70.8°F21.6°C 69% 4.0 mph W6.4 kmh W 9.0 mph14.5 kmh 29.94 in1013.9 mb 0.00 in0.0 mm 0.00 in0.0 mm 0.00 in0.0 mm
07:20 AM 82.2°F27.9°C 70.6°F21.4°C 68% 4.1 mph WNW6.6 kmh WNW 7.0 mph11.3 kmh 29.94 in1013.9 mb 0.00 in0.0 mm 0.00 in0.0 mm 0.00 in0.0 mm
07:25 AM 82.5°F28.1°C 70.8°F21.6°C 68% 3.5 mph W5.6 kmh W 9.0 mph14.5 kmh 29.94 in1013.9 mb 0.00 in0.0 mm 0.00 in0.0 mm 0.00 in0.0 mm
07:30 AM 82.6°F28.1°C 70.5°F21.4°C 67% 3.7 mph W6.0 kmh W 9.0 mph14.5 kmh 29.94 in1013.9 mb 0.00 in0.0 mm 0.00 in0.0 mm 0.00 in0.0 mm
07:35 AM 82.3°F27.9°C 70.2°F21.2°C 67% 4.6 mph W7.4 kmh W 9.0 mph14.5 kmh 29.94 in1013.9 mb 0.00 in0.0 mm 0.00 in0.0 mm 0.00 in0.0 mm
07:40 AM 82.3°F27.9°C 70.2°F21.2°C 67% 3.6 mph W5.8 kmh W 9.0 mph14.5 kmh 29.95 in1014.2 mb 0.00 in0.0 mm 0.00 in0.0 mm 0.00 in0.0 mm
07:45 AM 82.5°F28.1°C 70.4°F21.3°C 67% 3.7 mph W6.0 kmh W 9.0 mph14.5 kmh 29.94 in1013.9 mb 0.00 in0.0 mm 0.00 in0.0 mm 0.00 in0.0 mm
07:50 AM 82.4°F28.0°C 70.3°F21.3°C 67% 2.8 mph WNW4.5 kmh WNW 8.0 mph12.9 kmh 29.94 in1013.9 mb 0.00 in0.0 mm 0.00 in0.0 mm 0.00 in0.0 mm
07:55 AM 82.4°F28.0°C 70.3°F21.3°C 67% 3.5 mph WNW5.6 kmh WNW 8.0 mph12.9 kmh 29.94 in1013.9 mb 0.00 in0.0 mm 0.00 in0.0 mm 0.00 in0.0 mm
08:00 AM 82.5°F28.1°C 70.4°F21.3°C 67% 3.6 mph WNW5.8 kmh WNW 8.0 mph12.9 kmh 29.94 in1013.9 mb 0.00 in0.0 mm 0.00 in0.0 mm 0.00 in0.0 mm
08:05 AM 82.5°F28.1°C 70.0°F21.1°C 66% 3.7 mph W6.0 kmh W 9.0 mph14.5 kmh 29.95 in1014.2 mb 0.00 in0.0 mm 0.00 in0.0 mm 0.00 in0.0 mm
08:10 AM 82.6°F28.1°C 70.1°F21.2°C 66% 4.8 mph W7.7 kmh W 9.0 mph14.5 kmh 29.95 in1014.2 mb 0.00 in0.0 mm 0.00 in0.0 mm 0.00 in0.0 mm
08:15 AM 83.0°F28.3°C 70.4°F21.3°C 66% 3.8 mph W6.1 kmh W 9.0 mph14.5 kmh 29.95 in1014.2 mb 0.00 in0.0 mm 0.00 in0.0 mm 0.00 in0.0 mm
08:20 AM 83.3°F28.5°C 70.7°F21.5°C 66% 4.9 mph W7.9 kmh W 9.0 mph14.5 kmh 29.95 in1014.2 mb 0.00 in0.0 mm 0.00 in0.0 mm 0.00 in0.0 mm
08:25 AM 84.0°F28.9°C 70.5°F21.4°C 64% 6.0 mph W9.7 kmh W 13.0 mph20.9 kmh 29.95 in1014.2 mb 0.00 in0.0 mm 0.00 in0.0 mm 0.00 in0.0 mm
08:30 AM 84.3°F29.1°C 70.3°F21.3°C 63% 5.8 mph NW9.3 kmh NW 13.0 mph20.9 kmh 29.95 in1014.2 mb 0.00 in0.0 mm 0.00 in0.0 mm 0.00 in0.0 mm
08:35 AM 84.6°F29.2°C 70.6°F21.4°C 63% 3.3 mph W5.3 kmh W 12.0 mph19.3 kmh 29.95 in1014.2 mb 0.00 in0.0 mm 0.00 in0.0 mm 0.00 in0.0 mm
08:40 AM 84.8°F29.3°C 70.3°F21.3°C 62% 4.9 mph WNW7.9 kmh WNW 11.0 mph17.7 kmh 29.95 in1014.2 mb 0.00 in0.0 mm 0.00 in0.0 mm 0.00 in0.0 mm
08:45 AM 85.1°F29.5°C 70.6°F21.4°C 62% 4.9 mph WNW7.9 kmh WNW 11.0 mph17.7 kmh 29.95 in1014.2 mb 0.00 in0.0 mm 0.00 in0.0 mm 0.00 in0.0 mm
08:50 AM 85.6°F29.8°C 70.6°F21.4°C 61% 4.0 mph WNW6.4 kmh WNW 11.0 mph17.7 kmh 29.95 in1014.2 mb 0.00 in0.0 mm 0.00 in0.0 mm 0.00 in0.0 mm
08:55 AM 85.6°F29.8°C 70.6°F21.4°C 61% 5.2 mph WNW8.4 kmh WNW 10.0 mph16.1 kmh 29.95 in1014.2 mb 0.00 in0.0 mm 0.00 in0.0 mm 0.00 in0.0 mm
09:00 AM 85.8°F29.9°C 70.8°F21.6°C 61% 4.1 mph W6.6 kmh W 9.0 mph14.5 kmh 29.95 in1014.2 mb 0.00 in0.0 mm 0.00 in0.0 mm 0.00 in0.0 mm
09:05 AM 86.1°F30.1°C 70.1°F21.2°C 59% 5.5 mph W8.9 kmh W 11.0 mph17.7 kmh 29.96 in1014.6 mb 0.00 in0.0 mm 0.00 in0.0 mm 0.00 in0.0 mm
09:10 AM 86.5°F30.3°C 70.9°F21.6°C 60% 4.0 mph WNW6.4 kmh WNW 11.0 mph17.7 kmh 29.96 in1014.6 mb 0.00 in0.0 mm 0.00 in0.0 mm 0.00 in0.0 mm
09:15 AM 86.7°F30.4°C 71.1°F21.7°C 60% 5.1 mph W8.2 kmh W 10.0 mph16.1 kmh 29.96 in1014.6 mb 0.00 in0.0 mm 0.00 in0.0 mm 0.00 in0.0 mm
09:20 AM 86.8°F30.4°C 71.2°F21.8°C 60% 5.1 mph W8.2 kmh W 12.0 mph19.3 kmh 29.96 in1014.6 mb 0.00 in0.0 mm 0.00 in0.0 mm 0.00 in0.0 mm
09:25 AM 87.0°F30.6°C 71.4°F21.9°C 60% 4.5 mph WNW7.2 kmh WNW 12.0 mph19.3 kmh 29.96 in1014.6 mb 0.00 in0.0 mm 0.00 in0.0 mm 0.00 in0.0 mm
09:30 AM 87.2°F30.7°C 71.1°F21.7°C 59% 4.5 mph WSW7.2 kmh WSW 9.0 mph14.5 kmh 29.96 in1014.6 mb 0.00 in0.0 mm 0.00 in0.0 mm 0.00 in0.0 mm
09:35 AM 87.2°F30.7°C 70.6°F21.4°C 58% 4.8 mph W7.7 kmh W 11.0 mph17.7 kmh 29.96 in1014.6 mb 0.00 in0.0 mm 0.00 in0.0 mm 0.00 in0.0 mm
09:40 AM 87.5°F30.8°C 70.9°F21.6°C 58% 4.2 mph WSW6.8 kmh WSW 14.0 mph22.5 kmh 29.96 in1014.6 mb 0.00 in0.0 mm 0.00 in0.0 mm 0.00 in0.0 mm
09:45 AM 87.8°F31.0°C 71.1°F21.7°C 58% 4.5 mph W7.2 kmh W 14.0 mph22.5 kmh 29.96 in1014.6 mb 0.00 in0.0 mm 0.00 in0.0 mm 0.00 in0.0 mm
09:50 AM 88.0°F31.1°C 71.8°F22.1°C 59% 4.3 mph W6.9 kmh W 11.0 mph17.7 kmh 29.96 in1014.6 mb 0.00 in0.0 mm 0.00 in0.0 mm 0.00 in0.0 mm
09:55 AM 88.0°F31.1°C 71.3°F21.8°C 58% 4.9 mph WSW7.9 kmh WSW 11.0 mph17.7 kmh 29.96 in1014.6 mb 0.00 in0.0 mm 0.00 in0.0 mm 0.00 in0.0 mm
10:00 AM 88.3°F31.3°C 71.6°F22.0°C 58% 4.0 mph WSW6.4 kmh WSW 9.0 mph14.5 kmh 29.96 in1014.6 mb 0.00 in0.0 mm 0.00 in0.0 mm 0.00 in0.0 mm
10:05 AM 88.6°F31.4°C 70.9°F21.6°C 56% 5.7 mph W9.2 kmh W 11.0 mph17.7 kmh 29.96 in1014.6 mb 0.00 in0.0 mm 0.00 in0.0 mm 0.00 in0.0 mm
10:10 AM 89.1°F31.7°C 71.3°F21.8°C 56% 4.5 mph W7.2 kmh W 11.0 mph17.7 kmh 29.96 in1014.6 mb 0.00 in0.0 mm 0.00 in0.0 mm 0.00 in0.0 mm
10:15 AM 89.5°F31.9°C 71.7°F22.1°C 56% 3.4 mph WNW5.5 kmh WNW 10.0 mph16.1 kmh 29.97 in1014.9 mb 0.00 in0.0 mm 0.00 in0.0 mm 0.00 in0.0 mm
10:20 AM 89.3°F31.8°C 71.0°F21.7°C 55% 5.2 mph W8.4 kmh W 11.0 mph17.7 kmh 29.97 in1014.9 mb 0.00 in0.0 mm 0.00 in0.0 mm 0.00 in0.0 mm
10:25 AM 89.7°F32.1°C 71.9°F22.2°C 56% 4.3 mph WNW6.9 kmh WNW 11.0 mph17.7 kmh 29.97 in1014.9 mb 0.00 in0.0 mm 0.00 in0.0 mm 0.00 in0.0 mm
10:30 AM 89.7°F32.1°C 71.3°F21.8°C 55% 4.9 mph W7.9 kmh W 9.0 mph14.5 kmh 29.96 in1014.6 mb 0.00 in0.0 mm 0.00 in0.0 mm 0.00 in0.0 mm
10:35 AM 90.2°F32.3°C 71.3°F21.8°C 54% 4.5 mph W7.2 kmh W 10.0 mph16.1 kmh 29.97 in1014.9 mb 0.00 in0.0 mm 0.00 in0.0 mm 0.00 in0.0 mm
10:40 AM 90.4°F32.4°C 72.0°F22.2°C 55% 3.9 mph WSW6.3 kmh WSW 10.0 mph16.1 kmh 29.97 in1014.9 mb 0.00 in0.0 mm 0.00 in0.0 mm 0.00 in0.0 mm
10:45 AM 90.5°F32.5°C 71.5°F21.9°C 54% 4.5 mph W7.2 kmh W 10.0 mph16.1 kmh 29.96 in1014.6 mb 0.00 in0.0 mm 0.00 in0.0 mm 0.00 in0.0 mm
10:50 AM 90.7°F32.6°C 71.7°F22.1°C 54% 5.2 mph WNW8.4 kmh WNW 11.0 mph17.7 kmh 29.96 in1014.6 mb 0.00 in0.0 mm 0.00 in0.0 mm 0.00 in0.0 mm
10:55 AM 90.8°F32.7°C 71.8°F22.1°C 54% 4.5 mph W7.2 kmh W 13.0 mph20.9 kmh 29.96 in1014.6 mb 0.00 in0.0 mm 0.00 in0.0 mm 0.00 in0.0 mm
11:00 AM 91.1°F32.8°C 71.0°F21.7°C 52% 5.0 mph WNW8.0 kmh WNW 13.0 mph20.9 kmh 29.97 in1014.9 mb 0.00 in0.0 mm 0.00 in0.0 mm 0.00 in0.0 mm
11:05 AM 91.7°F33.2°C 71.5°F21.9°C 52% 4.1 mph WSW6.6 kmh WSW 12.0 mph19.3 kmh 29.96 in1014.6 mb 0.00 in0.0 mm 0.00 in0.0 mm 0.00 in0.0 mm
11:10 AM 91.3°F32.9°C 71.7°F22.1°C 53% 4.4 mph W7.1 kmh W 8.0 mph12.9 kmh 29.96 in1014.6 mb 0.00 in0.0 mm 0.00 in0.0 mm 0.00 in0.0 mm
11:15 AM 91.5°F33.1°C 71.9°F22.2°C 53% 4.0 mph WSW6.4 kmh WSW 10.0 mph16.1 kmh 29.96 in1014.6 mb 0.00 in0.0 mm 0.00 in0.0 mm 0.00 in0.0 mm
11:20 AM 91.5°F33.1°C 70.8°F21.6°C 51% 4.7 mph WSW7.6 kmh WSW 10.0 mph16.1 kmh 29.96 in1014.6 mb 0.00 in0.0 mm 0.00 in0.0 mm 0.00 in0.0 mm
11:25 AM 91.7°F33.2°C 71.0°F21.7°C 51% 5.1 mph W8.2 kmh W 10.0 mph16.1 kmh 29.96 in1014.6 mb 0.00 in0.0 mm 0.00 in0.0 mm 0.00 in0.0 mm
11:30 AM 91.7°F33.2°C 71.0°F21.7°C 51% 4.3 mph W6.9 kmh W 12.0 mph19.3 kmh 29.96 in1014.6 mb 0.00 in0.0 mm 0.00 in0.0 mm 0.00 in0.0 mm
11:35 AM 92.3°F33.5°C 70.9°F21.6°C 50% 5.3 mph W8.5 kmh W 12.0 mph19.3 kmh 29.96 in1014.6 mb 0.00 in0.0 mm 0.00 in0.0 mm 0.00 in0.0 mm
11:40 AM 92.2°F33.4°C 71.4°F21.9°C 51% 5.2 mph W8.4 kmh W 11.0 mph17.7 kmh 29.96 in1014.6 mb 0.00 in0.0 mm 0.00 in0.0 mm 0.00 in0.0 mm
11:45 AM 92.7°F33.7°C 70.7°F21.5°C 49% 6.1 mph W9.8 kmh W 12.0 mph19.3 kmh 29.96 in1014.6 mb 0.00 in0.0 mm 0.00 in0.0 mm 0.00 in0.0 mm
11:50 AM 92.8°F33.8°C 72.5°F22.5°C 52% 4.7 mph W7.6 kmh W 12.0 mph19.3 kmh 29.96 in1014.6 mb 0.00 in0.0 mm 0.00 in0.0 mm 0.00 in0.0 mm
11:55 AM 93.2°F34.0°C 71.7°F22.1°C 50% 5.3 mph W8.5 kmh W 10.0 mph16.1 kmh 29.95 in1014.2 mb 0.00 in0.0 mm 0.00 in0.0 mm 0.00 in0.0 mm
12:00 PM 93.1°F33.9°C 72.2°F22.3°C 51% 4.1 mph W6.6 kmh W 9.0 mph14.5 kmh 29.96 in1014.6 mb 0.00 in0.0 mm 0.00 in0.0 mm 0.00 in0.0 mm
12:05 PM 93.4°F34.1°C 71.9°F22.2°C 50% 4.8 mph W7.7 kmh W 10.0 mph16.1 kmh 29.96 in1014.6 mb 0.00 in0.0 mm 0.00 in0.0 mm 0.00 in0.0 mm
12:10 PM 93.3°F34.1°C 71.8°F22.1°C 50% 5.0 mph W8.0 kmh W 11.0 mph17.7 kmh 29.96 in1014.6 mb 0.00 in0.0 mm 0.00 in0.0 mm 0.00 in0.0 mm
12:15 PM 93.3°F34.1°C 71.8°F22.1°C 50% 4.2 mph WSW6.8 kmh WSW 11.0 mph17.7 kmh 29.96 in1014.6 mb 0.00 in0.0 mm 0.00 in0.0 mm 0.00 in0.0 mm
12:20 PM 93.4°F34.1°C 72.5°F22.5°C 51% 2.8 mph W4.5 kmh W 10.0 mph16.1 kmh 29.96 in1014.6 mb 0.00 in0.0 mm 0.00 in0.0 mm 0.00 in0.0 mm
12:25 PM 94.3°F34.6°C 72.8°F22.7°C 50% 4.3 mph W6.9 kmh W 9.0 mph14.5 kmh 29.96 in1014.6 mb 0.00 in0.0 mm 0.00 in0.0 mm 0.00 in0.0 mm
12:30 PM 93.5°F34.2°C 72.6°F22.6°C 51% 3.6 mph SW5.8 kmh SW 9.0 mph14.5 kmh 29.95 in1014.2 mb 0.00 in0.0 mm 0.00 in0.0 mm 0.00 in0.0 mm
12:35 PM 93.8°F34.3°C 72.3°F22.4°C 50% 4.3 mph WSW6.9 kmh WSW 10.0 mph16.1 kmh 29.95 in1014.2 mb 0.00 in0.0 mm 0.00 in0.0 mm 0.00 in0.0 mm
12:40 PM 93.9°F34.4°C 73.0°F22.8°C 51% 6.2 mph W10.0 kmh W 13.0 mph20.9 kmh 29.95 in1014.2 mb 0.00 in0.0 mm 0.00 in0.0 mm 0.00 in0.0 mm
12:45 PM 94.1°F34.5°C 73.2°F22.9°C 51% 3.7 mph W6.0 kmh W 13.0 mph20.9 kmh 29.95 in1014.2 mb 0.00 in0.0 mm 0.00 in0.0 mm 0.00 in0.0 mm
12:50 PM 94.2°F34.6°C 72.1°F22.3°C 49% 4.9 mph W7.9 kmh W 10.0 mph16.1 kmh 29.95 in1014.2 mb 0.00 in0.0 mm 0.00 in0.0 mm 0.00 in0.0 mm
12:55 PM 94.4°F34.7°C 72.8°F22.7°C 50% 4.1 mph WNW6.6 kmh WNW 10.0 mph16.1 kmh 29.95 in1014.2 mb 0.00 in0.0 mm 0.00 in0.0 mm 0.00 in0.0 mm
01:00 PM 94.6°F34.8°C 72.4°F22.4°C 49% 4.6 mph WSW7.4 kmh WSW 9.0 mph14.5 kmh 29.95 in1014.2 mb 0.00 in0.0 mm 0.00 in0.0 mm 0.00 in0.0 mm
01:05 PM 94.8°F34.9°C 72.6°F22.6°C 49% 4.9 mph W7.9 kmh W 10.0 mph16.1 kmh 29.95 in1014.2 mb 0.00 in0.0 mm 0.00 in0.0 mm 0.00 in0.0 mm
01:10 PM 94.4°F34.7°C 71.6°F22.0°C 48% 6.1 mph WSW9.8 kmh WSW 11.0 mph17.7 kmh 29.95 in1014.2 mb 0.00 in0.0 mm 0.00 in0.0 mm 0.00 in0.0 mm
01:15 PM 94.6°F34.8°C 71.8°F22.1°C 48% 4.8 mph W7.7 kmh W 11.0 mph17.7 kmh 29.94 in1013.9 mb 0.00 in0.0 mm 0.00 in0.0 mm 0.00 in0.0 mm
01:20 PM 95.0°F35.0°C 73.4°F23.0°C 50% 3.1 mph SW5.0 kmh SW 9.0 mph14.5 kmh 29.94 in1013.9 mb 0.00 in0.0 mm 0.00 in0.0 mm 0.00 in0.0 mm
01:25 PM 95.0°F35.0°C 72.2°F22.3°C 48% 4.3 mph WSW6.9 kmh WSW 10.0 mph16.1 kmh 29.94 in1013.9 mb 0.00 in0.0 mm 0.00 in0.0 mm 0.00 in0.0 mm
01:30 PM 95.1°F35.1°C 72.9°F22.7°C 49% 4.0 mph WSW6.4 kmh WSW 12.0 mph19.3 kmh 29.94 in1013.9 mb 0.00 in0.0 mm 0.00 in0.0 mm 0.00 in0.0 mm
01:35 PM 95.4°F35.2°C 71.9°F22.2°C 47% 4.4 mph WSW7.1 kmh WSW 12.0 mph19.3 kmh 29.94 in1013.9 mb 0.00 in0.0 mm 0.00 in0.0 mm 0.00 in0.0 mm
01:40 PM 94.7°F34.8°C 71.9°F22.2°C 48% 4.9 mph SW7.9 kmh SW 11.0 mph17.7 kmh 29.94 in1013.9 mb 0.00 in0.0 mm 0.00 in0.0 mm 0.00 in0.0 mm
01:45 PM 95.1°F35.1°C 71.6°F22.0°C 47% 4.5 mph SW7.2 kmh SW 14.0 mph22.5 kmh 29.94 in1013.9 mb 0.00 in0.0 mm 0.00 in0.0 mm 0.00 in0.0 mm
01:50 PM 95.3°F35.2°C 71.8°F22.1°C 47% 5.4 mph WSW8.7 kmh WSW 14.0 mph22.5 kmh 29.94 in1013.9 mb 0.00 in0.0 mm 0.00 in0.0 mm 0.00 in0.0 mm
01:55 PM 94.6°F34.8°C 72.4°F22.4°C 49% 5.4 mph SW8.7 kmh SW 13.0 mph20.9 kmh 29.94 in1013.9 mb 0.00 in0.0 mm 0.00 in0.0 mm 0.00 in0.0 mm
02:00 PM 95.2°F35.1°C 72.4°F22.4°C 48% 5.6 mph SW9.0 kmh SW 12.0 mph19.3 kmh 29.93 in1013.5 mb 0.00 in0.0 mm 0.00 in0.0 mm 0.00 in0.0 mm
02:05 PM 95.8°F35.4°C 71.6°F22.0°C 46% 4.5 mph SW7.2 kmh SW 15.0 mph24.1 kmh 29.93 in1013.5 mb 0.00 in0.0 mm 0.00 in0.0 mm 0.00 in0.0 mm
02:10 PM 95.8°F35.4°C 71.6°F22.0°C 46% 6.7 mph SW10.8 kmh SW 15.0 mph24.1 kmh 29.93 in1013.5 mb 0.00 in0.0 mm 0.00 in0.0 mm 0.00 in0.0 mm
02:15 PM 95.2°F35.1°C 70.5°F21.4°C 45% 5.2 mph WSW8.4 kmh WSW 13.0 mph20.9 kmh 29.93 in1013.5 mb 0.00 in0.0 mm 0.00 in0.0 mm 0.00 in0.0 mm
02:20 PM 95.0°F35.0°C 69.6°F20.9°C 44% 4.1 mph W6.6 kmh W 12.0 mph19.3 kmh 29.93 in1013.5 mb 0.00 in0.0 mm 0.00 in0.0 mm 0.00 in0.0 mm
02:25 PM 95.8°F35.4°C 70.3°F21.3°C 44% 5.3 mph W8.5 kmh W 10.0 mph16.1 kmh 29.93 in1013.5 mb 0.00 in0.0 mm 0.00 in0.0 mm 0.00 in0.0 mm
02:30 PM 96.0°F35.6°C 71.2°F21.8°C 45% 4.2 mph WSW6.8 kmh WSW 10.0 mph16.1 kmh 29.93 in1013.5 mb 0.00 in0.0 mm 0.00 in0.0 mm 0.00 in0.0 mm
02:35 PM 95.8°F35.4°C 71.6°F22.0°C 46% 5.2 mph SW8.4 kmh SW 12.0 mph19.3 kmh 29.93 in1013.5 mb 0.00 in0.0 mm 0.00 in0.0 mm 0.00 in0.0 mm
02:40 PM 96.3°F35.7°C 72.1°F22.3°C 46% 3.8 mph WSW6.1 kmh WSW 12.0 mph19.3 kmh 29.92 in1013.2 mb 0.00 in0.0 mm 0.00 in0.0 mm 0.00 in0.0 mm
02:45 PM 96.3°F35.7°C 71.4°F21.9°C 45% 5.9 mph SW9.5 kmh SW 12.0 mph19.3 kmh 29.92 in1013.2 mb 0.00 in0.0 mm 0.00 in0.0 mm 0.00 in0.0 mm
02:50 PM 95.7°F35.4°C 70.9°F21.6°C 45% 4.4 mph SW7.1 kmh SW 12.0 mph19.3 kmh 29.92 in1013.2 mb 0.00 in0.0 mm 0.00 in0.0 mm 0.00 in0.0 mm
02:55 PM 96.3°F35.7°C 71.4°F21.9°C 45% 4.5 mph WSW7.2 kmh WSW 11.0 mph17.7 kmh 29.92 in1013.2 mb 0.00 in0.0 mm 0.00 in0.0 mm 0.00 in0.0 mm
03:00 PM 95.8°F35.4°C 70.3°F21.3°C 44% 5.7 mph SW9.2 kmh SW 12.0 mph19.3 kmh 29.92 in1013.2 mb 0.00 in0.0 mm 0.00 in0.0 mm 0.00 in0.0 mm
03:05 PM 96.0°F35.6°C 72.5°F22.5°C 47% 4.6 mph SW7.4 kmh SW 12.0 mph19.3 kmh 29.92 in1013.2 mb 0.00 in0.0 mm 0.00 in0.0 mm 0.00 in0.0 mm
03:10 PM 96.4°F35.8°C 71.5°F21.9°C 45% 5.4 mph SW8.7 kmh SW 12.0 mph19.3 kmh 29.92 in1013.2 mb 0.00 in0.0 mm 0.00 in0.0 mm 0.00 in0.0 mm
03:15 PM 95.5°F35.3°C 70.7°F21.5°C 45% 7.9 mph SW12.7 kmh SW 14.0 mph22.5 kmh 29.92 in1013.2 mb 0.00 in0.0 mm 0.00 in0.0 mm 0.00 in0.0 mm
03:20 PM 95.2°F35.1°C 71.1°F21.7°C 46% 8.7 mph SW14.0 kmh SW 17.0 mph27.4 kmh 29.92 in1013.2 mb 0.00 in0.0 mm 0.00 in0.0 mm 0.00 in0.0 mm
03:25 PM 95.5°F35.3°C 71.4°F21.9°C 46% 6.3 mph SW10.1 kmh SW 17.0 mph27.4 kmh 29.91 in1012.9 mb 0.00 in0.0 mm 0.00 in0.0 mm 0.00 in0.0 mm
03:30 PM 95.7°F35.4°C 70.9°F21.6°C 45% 6.0 mph SW9.7 kmh SW 15.0 mph24.1 kmh 29.91 in1012.9 mb 0.00 in0.0 mm 0.00 in0.0 mm 0.00 in0.0 mm
03:35 PM 95.6°F35.3°C 70.8°F21.6°C 45% 7.2 mph SSW11.6 kmh SSW 15.0 mph24.1 kmh 29.91 in1012.9 mb 0.00 in0.0 mm 0.00 in0.0 mm 0.00 in0.0 mm
03:40 PM 95.4°F35.2°C 70.0°F21.1°C 44% 6.3 mph SW10.1 kmh SW 14.0 mph22.5 kmh 29.91 in1012.9 mb 0.00 in0.0 mm 0.00 in0.0 mm 0.00 in0.0 mm
03:45 PM 95.6°F35.3°C 70.2°F21.2°C 44% 7.5 mph SW12.1 kmh SW 13.0 mph20.9 kmh 29.91 in1012.9 mb 0.00 in0.0 mm 0.00 in0.0 mm 0.00 in0.0 mm
03:50 PM 95.7°F35.4°C 71.6°F22.0°C 46% 5.7 mph SW9.2 kmh SW 12.0 mph19.3 kmh 29.91 in1012.9 mb 0.00 in0.0 mm 0.00 in0.0 mm 0.00 in0.0 mm
03:55 PM 96.0°F35.6°C 71.2°F21.8°C 45% 4.5 mph SW7.2 kmh SW 12.0 mph19.3 kmh 29.91 in1012.9 mb 0.00 in0.0 mm 0.00 in0.0 mm 0.00 in0.0 mm
04:00 PM 96.4°F35.8°C 70.9°F21.6°C 44% 4.3 mph SW6.9 kmh SW 12.0 mph19.3 kmh 29.90 in1012.5 mb 0.00 in0.0 mm 0.00 in0.0 mm 0.00 in0.0 mm
04:05 PM 96.2°F35.7°C 70.0°F21.1°C 43% 5.3 mph W8.5 kmh W 12.0 mph19.3 kmh 29.90 in1012.5 mb 0.00 in0.0 mm 0.00 in0.0 mm 0.00 in0.0 mm
04:10 PM 96.0°F35.6°C 69.8°F21.0°C 43% 5.2 mph WSW8.4 kmh WSW 12.0 mph19.3 kmh 29.90 in1012.5 mb 0.00 in0.0 mm 0.00 in0.0 mm 0.00 in0.0 mm
04:15 PM 96.0°F35.6°C 69.8°F21.0°C 43% 5.7 mph SW9.2 kmh SW 12.0 mph19.3 kmh 29.90 in1012.5 mb 0.00 in0.0 mm 0.00 in0.0 mm 0.00 in0.0 mm
04:20 PM 95.6°F35.3°C 69.5°F20.8°C 43% 5.2 mph SW8.4 kmh SW 12.0 mph19.3 kmh 29.89 in1012.2 mb 0.00 in0.0 mm 0.00 in0.0 mm 0.00 in0.0 mm
04:25 PM 95.7°F35.4°C 70.2°F21.2°C 44% 6.5 mph WSW10.5 kmh WSW 13.0 mph20.9 kmh 29.89 in1012.2 mb 0.00 in0.0 mm 0.00 in0.0 mm 0.00 in0.0 mm
04:30 PM 95.8°F35.4°C 69.7°F20.9°C 43% 4.5 mph WSW7.2 kmh WSW 13.0 mph20.9 kmh 29.89 in1012.2 mb 0.00 in0.0 mm 0.00 in0.0 mm 0.00 in0.0 mm
04:35 PM 95.6°F35.3°C 70.2°F21.2°C 44% 6.0 mph SW9.7 kmh SW 11.0 mph17.7 kmh 29.89 in1012.2 mb 0.00 in0.0 mm 0.00 in0.0 mm 0.00 in0.0 mm
04:40 PM 95.7°F35.4°C 69.6°F20.9°C 43% 4.8 mph W7.7 kmh W 13.0 mph20.9 kmh 29.89 in1012.2 mb 0.00 in0.0 mm 0.00 in0.0 mm 0.00 in0.0 mm
04:45 PM 95.3°F35.2°C 69.2°F20.7°C 43% 5.7 mph SW9.2 kmh SW 13.0 mph20.9 kmh 29.89 in1012.2 mb 0.00 in0.0 mm 0.00 in0.0 mm 0.00 in0.0 mm
04:50 PM 95.3°F35.2°C 69.2°F20.7°C 43% 4.6 mph SW7.4 kmh SW 11.0 mph17.7 kmh 29.89 in1012.2 mb 0.00 in0.0 mm 0.00 in0.0 mm 0.00 in0.0 mm
04:55 PM 95.2°F35.1°C 69.8°F21.0°C 44% 4.9 mph WSW7.9 kmh WSW 12.0 mph19.3 kmh 29.89 in1012.2 mb 0.00 in0.0 mm 0.00 in0.0 mm 0.00 in0.0 mm
05:00 PM 95.2°F35.1°C 69.1°F20.6°C 43% 5.0 mph SW8.0 kmh SW 12.0 mph19.3 kmh 29.89 in1012.2 mb 0.00 in0.0 mm 0.00 in0.0 mm 0.00 in0.0 mm
05:05 PM 95.2°F35.1°C 69.8°F21.0°C 44% 4.2 mph W6.8 kmh W 10.0 mph16.1 kmh 29.89 in1012.2 mb 0.00 in0.0 mm 0.00 in0.0 mm 0.00 in0.0 mm
05:10 PM 95.2°F35.1°C 69.1°F20.6°C 43% 4.6 mph SW7.4 kmh SW 10.0 mph16.1 kmh 29.89 in1012.2 mb 0.00 in0.0 mm 0.00 in0.0 mm 0.00 in0.0 mm
05:15 PM 94.9°F34.9°C 68.9°F20.5°C 43% 5.1 mph SW8.2 kmh SW 10.0 mph16.1 kmh 29.89 in1012.2 mb 0.00 in0.0 mm 0.00 in0.0 mm 0.00 in0.0 mm
05:20 PM 94.9°F34.9°C 68.9°F20.5°C 43% 5.2 mph SW8.4 kmh SW 10.0 mph16.1 kmh 29.89 in1012.2 mb 0.00 in0.0 mm 0.00 in0.0 mm 0.00 in0.0 mm
05:25 PM 94.8°F34.9°C 68.8°F20.4°C 43% 5.3 mph SW8.5 kmh SW 10.0 mph16.1 kmh 29.89 in1012.2 mb 0.00 in0.0 mm 0.00 in0.0 mm 0.00 in0.0 mm
05:30 PM 94.7°F34.8°C 68.0°F20.0°C 42% 5.5 mph SW8.9 kmh SW 11.0 mph17.7 kmh 29.90 in1012.5 mb 0.00 in0.0 mm 0.00 in0.0 mm 0.00 in0.0 mm
05:35 PM 94.6°F34.8°C 68.6°F20.3°C 43% 4.9 mph SW7.9 kmh SW 11.0 mph17.7 kmh 29.90 in1012.5 mb 0.00 in0.0 mm 0.00 in0.0 mm 0.00 in0.0 mm
05:40 PM 94.6°F34.8°C 67.9°F19.9°C 42% 5.2 mph SW8.4 kmh SW 11.0 mph17.7 kmh 29.90 in1012.5 mb 0.00 in0.0 mm 0.00 in0.0 mm 0.00 in0.0 mm
05:45 PM 94.5°F34.7°C 67.8°F19.9°C 42% 5.8 mph SW9.3 kmh SW 15.0 mph24.1 kmh 29.90 in1012.5 mb 0.00 in0.0 mm 0.00 in0.0 mm 0.00 in0.0 mm
05:50 PM 94.6°F34.8°C 67.9°F19.9°C 42% 4.0 mph SW6.4 kmh SW 15.0 mph24.1 kmh 29.90 in1012.5 mb 0.00 in0.0 mm 0.00 in0.0 mm 0.00 in0.0 mm
05:55 PM 94.3°F34.6°C 67.6°F19.8°C 42% 4.6 mph SW7.4 kmh SW 12.0 mph19.3 kmh 29.90 in1012.5 mb 0.00 in0.0 mm 0.00 in0.0 mm 0.00 in0.0 mm
06:00 PM 94.0°F34.4°C 67.4°F19.7°C 42% 4.8 mph SW7.7 kmh SW 12.0 mph19.3 kmh 29.90 in1012.5 mb 0.00 in0.0 mm 0.00 in0.0 mm 0.00 in0.0 mm
06:05 PM 93.9°F34.4°C 68.0°F20.0°C 43% 3.2 mph WSW5.1 kmh WSW 10.0 mph16.1 kmh 29.90 in1012.5 mb 0.00 in0.0 mm 0.00 in0.0 mm 0.00 in0.0 mm
06:10 PM 93.8°F34.3°C 67.9°F19.9°C 43% 4.5 mph SW7.2 kmh SW 10.0 mph16.1 kmh 29.90 in1012.5 mb 0.00 in0.0 mm 0.00 in0.0 mm 0.00 in0.0 mm
06:15 PM 93.8°F34.3°C 67.2°F19.6°C 42% 3.8 mph WSW6.1 kmh WSW 10.0 mph16.1 kmh 29.90 in1012.5 mb 0.00 in0.0 mm 0.00 in0.0 mm 0.00 in0.0 mm
06:20 PM 93.8°F34.3°C 67.2°F19.6°C 42% 3.6 mph SW5.8 kmh SW 10.0 mph16.1 kmh 29.90 in1012.5 mb 0.00 in0.0 mm 0.00 in0.0 mm 0.00 in0.0 mm
06:25 PM 93.7°F34.3°C 67.8°F19.9°C 43% 4.4 mph SW7.1 kmh SW 10.0 mph16.1 kmh 29.90 in1012.5 mb 0.00 in0.0 mm 0.00 in0.0 mm 0.00 in0.0 mm
06:30 PM 93.2°F34.0°C 69.9°F21.1°C 47% 5.1 mph SW8.2 kmh SW 9.0 mph14.5 kmh 29.90 in1012.5 mb 0.00 in0.0 mm 0.00 in0.0 mm 0.00 in0.0 mm
06:35 PM 92.9°F33.8°C 69.7°F20.9°C 47% 5.0 mph SW8.0 kmh SW 9.0 mph14.5 kmh 29.90 in1012.5 mb 0.00 in0.0 mm 0.00 in0.0 mm 0.00 in0.0 mm
06:40 PM 92.6°F33.7°C 69.4°F20.8°C 47% 5.2 mph SW8.4 kmh SW 12.0 mph19.3 kmh 29.90 in1012.5 mb 0.00 in0.0 mm 0.00 in0.0 mm 0.00 in0.0 mm
06:45 PM 92.5°F33.6°C 69.3°F20.7°C 47% 4.8 mph SW7.7 kmh SW 12.0 mph19.3 kmh 29.90 in1012.5 mb 0.00 in0.0 mm 0.00 in0.0 mm 0.00 in0.0 mm
06:50 PM 92.3°F33.5°C 69.1°F20.6°C 47% 6.1 mph SW9.8 kmh SW 12.0 mph19.3 kmh 29.90 in1012.5 mb 0.00 in0.0 mm 0.00 in0.0 mm 0.00 in0.0 mm
06:55 PM 92.1°F33.4°C 69.5°F20.8°C 48% 4.9 mph SW7.9 kmh SW 12.0 mph19.3 kmh 29.90 in1012.5 mb 0.00 in0.0 mm 0.00 in0.0 mm 0.00 in0.0 mm
07:00 PM 91.9°F33.3°C 69.4°F20.8°C 48% 5.0 mph SW8.0 kmh SW 9.0 mph14.5 kmh 29.90 in1012.5 mb 0.00 in0.0 mm 0.00 in0.0 mm 0.00 in0.0 mm
07:05 PM 91.8°F33.2°C 69.9°F21.1°C 49% 4.4 mph SW7.1 kmh SW 9.0 mph14.5 kmh 29.90 in1012.5 mb 0.00 in0.0 mm 0.00 in0.0 mm 0.00 in0.0 mm
07:10 PM 91.4°F33.0°C 69.5°F20.8°C 49% 4.3 mph SW6.9 kmh SW 10.0 mph16.1 kmh 29.90 in1012.5 mb 0.00 in0.0 mm 0.00 in0.0 mm 0.00 in0.0 mm
07:15 PM 91.3°F32.9°C 69.4°F20.8°C 49% 5.3 mph SW8.5 kmh SW 12.0 mph19.3 kmh 29.90 in1012.5 mb 0.00 in0.0 mm 0.00 in0.0 mm 0.00 in0.0 mm
07:20 PM 91.1°F32.8°C 69.2°F20.7°C 49% 4.9 mph SW7.9 kmh SW 12.0 mph19.3 kmh 29.90 in1012.5 mb 0.00 in0.0 mm 0.00 in0.0 mm 0.00 in0.0 mm
07:25 PM 90.9°F32.7°C 69.1°F20.6°C 49% 5.2 mph SW8.4 kmh SW 11.0 mph17.7 kmh 29.90 in1012.5 mb 0.00 in0.0 mm 0.00 in0.0 mm 0.00 in0.0 mm
07:30 PM 90.6°F32.6°C 68.8°F20.4°C 49% 3.5 mph SW5.6 kmh SW 11.0 mph17.7 kmh 29.90 in1012.5 mb 0.00 in0.0 mm 0.00 in0.0 mm 0.00 in0.0 mm
07:35 PM 90.4°F32.4°C 69.2°F20.7°C 50% 3.9 mph SW6.3 kmh SW 10.0 mph16.1 kmh 29.90 in1012.5 mb 0.00 in0.0 mm 0.00 in0.0 mm 0.00 in0.0 mm
07:40 PM 90.3°F32.4°C 68.5°F20.3°C 49% 4.8 mph SW7.7 kmh SW 10.0 mph16.1 kmh 29.90 in1012.5 mb 0.00 in0.0 mm 0.00 in0.0 mm 0.00 in0.0 mm
07:45 PM 90.0°F32.2°C 68.8°F20.4°C 50% 3.7 mph SW6.0 kmh SW 8.0 mph12.9 kmh 29.90 in1012.5 mb 0.00 in0.0 mm 0.00 in0.0 mm 0.00 in0.0 mm
07:50 PM 90.0°F32.2°C 68.8°F20.4°C 50% 4.8 mph SW7.7 kmh SW 9.0 mph14.5 kmh 29.90 in1012.5 mb 0.00 in0.0 mm 0.00 in0.0 mm 0.00 in0.0 mm
07:55 PM 89.8°F32.1°C 68.6°F20.3°C 50% 4.4 mph SW7.1 kmh SW 9.0 mph14.5 kmh 29.90 in1012.5 mb 0.00 in0.0 mm 0.00 in0.0 mm 0.00 in0.0 mm
08:00 PM 89.6°F32.0°C 68.5°F20.3°C 50% 4.6 mph SW7.4 kmh SW 8.0 mph12.9 kmh 29.90 in1012.5 mb 0.00 in0.0 mm 0.00 in0.0 mm 0.00 in0.0 mm
08:05 PM 89.4°F31.9°C 68.9°F20.5°C 51% 4.4 mph SW7.1 kmh SW 8.0 mph12.9 kmh 29.90 in1012.5 mb 0.00 in0.0 mm 0.00 in0.0 mm 0.00 in0.0 mm
08:10 PM 89.2°F31.8°C 68.7°F20.4°C 51% 3.3 mph SW5.3 kmh SW 7.0 mph11.3 kmh 29.90 in1012.5 mb 0.00 in0.0 mm 0.00 in0.0 mm 0.00 in0.0 mm
08:15 PM 89.0°F31.7°C 69.1°F20.6°C 52% 3.7 mph SW6.0 kmh SW 7.0 mph11.3 kmh 29.90 in1012.5 mb 0.00 in0.0 mm 0.00 in0.0 mm 0.00 in0.0 mm
08:20 PM 88.8°F31.6°C 69.4°F20.8°C 53% 4.6 mph SW7.4 kmh SW 8.0 mph12.9 kmh 29.90 in1012.5 mb 0.00 in0.0 mm 0.00 in0.0 mm 0.00 in0.0 mm
08:25 PM 88.6°F31.4°C 69.2°F20.7°C 53% 3.5 mph SW5.6 kmh SW 8.0 mph12.9 kmh 29.90 in1012.5 mb 0.00 in0.0 mm 0.00 in0.0 mm 0.00 in0.0 mm
08:30 PM 88.5°F31.4°C 69.7°F20.9°C 54% 4.0 mph SW6.4 kmh SW 8.0 mph12.9 kmh 29.90 in1012.5 mb 0.00 in0.0 mm 0.00 in0.0 mm 0.00 in0.0 mm
08:35 PM 88.4°F31.3°C 69.6°F20.9°C 54% 3.7 mph SW6.0 kmh SW 9.0 mph14.5 kmh 29.91 in1012.9 mb 0.00 in0.0 mm 0.00 in0.0 mm 0.00 in0.0 mm
08:40 PM 88.3°F31.3°C 69.5°F20.8°C 54% 3.5 mph SW5.6 kmh SW 9.0 mph14.5 kmh 29.91 in1012.9 mb 0.00 in0.0 mm 0.00 in0.0 mm 0.00 in0.0 mm
08:45 PM 88.1°F31.2°C 69.3°F20.7°C 54% 3.8 mph SW6.1 kmh SW 8.0 mph12.9 kmh 29.91 in1012.9 mb 0.00 in0.0 mm 0.00 in0.0 mm 0.00 in0.0 mm
08:50 PM 88.0°F31.1°C 69.8°F21.0°C 55% 4.1 mph SW6.6 kmh SW 9.0 mph14.5 kmh 29.91 in1012.9 mb 0.00 in0.0 mm 0.00 in0.0 mm 0.00 in0.0 mm
08:55 PM 87.8°F31.0°C 69.6°F20.9°C 55% 2.3 mph SW3.7 kmh SW 9.0 mph14.5 kmh 29.91 in1012.9 mb 0.00 in0.0 mm 0.00 in0.0 mm 0.00 in0.0 mm
09:00 PM 87.7°F30.9°C 69.5°F20.8°C 55% 3.4 mph SW5.5 kmh SW 7.0 mph11.3 kmh 29.92 in1013.2 mb 0.00 in0.0 mm 0.00 in0.0 mm 0.00 in0.0 mm
09:05 PM 87.6°F30.9°C 69.4°F20.8°C 55% 3.9 mph SW6.3 kmh SW 8.0 mph12.9 kmh 29.92 in1013.2 mb 0.00 in0.0 mm 0.00 in0.0 mm 0.00 in0.0 mm
09:10 PM 87.4°F30.8°C 69.7°F20.9°C 56% 3.8 mph SW6.1 kmh SW 8.0 mph12.9 kmh 29.92 in1013.2 mb 0.00 in0.0 mm 0.00 in0.0 mm 0.00 in0.0 mm
09:15 PM 87.2°F30.7°C 69.6°F20.9°C 56% 3.5 mph SW5.6 kmh SW 12.0 mph19.3 kmh 29.92 in1013.2 mb 0.00 in0.0 mm 0.00 in0.0 mm 0.00 in0.0 mm
09:20 PM 87.1°F30.6°C 70.0°F21.1°C 57% 3.3 mph SW5.3 kmh SW 12.0 mph19.3 kmh 29.93 in1013.5 mb 0.00 in0.0 mm 0.00 in0.0 mm 0.00 in0.0 mm
09:25 PM 87.0°F30.6°C 69.9°F21.1°C 57% 3.2 mph SW5.1 kmh SW 8.0 mph12.9 kmh 29.93 in1013.5 mb 0.00 in0.0 mm 0.00 in0.0 mm 0.00 in0.0 mm
09:30 PM 86.8°F30.4°C 69.7°F20.9°C 57% 2.4 mph SW3.9 kmh SW 7.0 mph11.3 kmh 29.93 in1013.5 mb 0.00 in0.0 mm 0.00 in0.0 mm 0.00 in0.0 mm
09:35 PM 86.8°F30.4°C 69.7°F20.9°C 57% 2.9 mph SW4.7 kmh SW 7.0 mph11.3 kmh 29.93 in1013.5 mb 0.00 in0.0 mm 0.00 in0.0 mm 0.00 in0.0 mm
09:40 PM 86.7°F30.4°C 69.6°F20.9°C 57% 2.5 mph SW4.0 kmh SW 7.0 mph11.3 kmh 29.93 in1013.5 mb 0.00 in0.0 mm 0.00 in0.0 mm 0.00 in0.0 mm
09:45 PM 86.7°F30.4°C 69.6°F20.9°C 57% 3.7 mph SW6.0 kmh SW 7.0 mph11.3 kmh 29.93 in1013.5 mb 0.00 in0.0 mm 0.00 in0.0 mm 0.00 in0.0 mm
09:50 PM 86.6°F30.3°C 70.0°F21.1°C 58% 3.2 mph SW5.1 kmh SW 7.0 mph11.3 kmh 29.93 in1013.5 mb 0.00 in0.0 mm 0.00 in0.0 mm 0.00 in0.0 mm
09:55 PM 86.4°F30.2°C 69.8°F21.0°C 58% 2.8 mph SW4.5 kmh SW 8.0 mph12.9 kmh 29.93 in1013.5 mb 0.00 in0.0 mm 0.00 in0.0 mm 0.00 in0.0 mm
10:00 PM 86.4°F30.2°C 69.8°F21.0°C 58% 2.9 mph SW4.7 kmh SW 8.0 mph12.9 kmh 29.93 in1013.5 mb 0.00 in0.0 mm 0.00 in0.0 mm 0.00 in0.0 mm
10:05 PM 86.4°F30.2°C 69.8°F21.0°C 58% 3.4 mph SW5.5 kmh SW 6.0 mph9.7 kmh 29.93 in1013.5 mb 0.00 in0.0 mm 0.00 in0.0 mm 0.00 in0.0 mm
10:10 PM 86.3°F30.2°C 69.7°F20.9°C 58% 3.2 mph SW5.1 kmh SW 8.0 mph12.9 kmh 29.94 in1013.9 mb 0.00 in0.0 mm 0.00 in0.0 mm 0.00 in0.0 mm
10:15 PM 86.3°F30.2°C 69.7°F20.9°C 58% 2.3 mph SW3.7 kmh SW 8.0 mph12.9 kmh 29.93 in1013.5 mb 0.00 in0.0 mm 0.00 in0.0 mm 0.00 in0.0 mm
10:20 PM 86.2°F30.1°C 70.2°F21.2°C 59% 3.2 mph SW5.1 kmh SW 7.0 mph11.3 kmh 29.94 in1013.9 mb 0.00 in0.0 mm 0.00 in0.0 mm 0.00 in0.0 mm
10:25 PM 86.0°F30.0°C 70.0°F21.1°C 59% 2.1 mph SW3.4 kmh SW 7.0 mph11.3 kmh 29.93 in1013.5 mb 0.00 in0.0 mm 0.00 in0.0 mm 0.00 in0.0 mm
10:30 PM 85.9°F29.9°C 69.9°F21.1°C 59% 2.7 mph SW4.3 kmh SW 6.0 mph9.7 kmh 29.93 in1013.5 mb 0.00 in0.0 mm 0.00 in0.0 mm 0.00 in0.0 mm
10:35 PM 85.9°F29.9°C 70.4°F21.3°C 60% 3.5 mph SW5.6 kmh SW 6.0 mph9.7 kmh 29.93 in1013.5 mb 0.00 in0.0 mm 0.00 in0.0 mm 0.00 in0.0 mm
10:40 PM 85.8°F29.9°C 70.3°F21.3°C 60% 2.5 mph SW4.0 kmh SW 6.0 mph9.7 kmh 29.94 in1013.9 mb 0.00 in0.0 mm 0.00 in0.0 mm 0.00 in0.0 mm
10:45 PM 85.7°F29.8°C 70.2°F21.2°C 60% 3.6 mph SW5.8 kmh SW 6.0 mph9.7 kmh 29.94 in1013.9 mb 0.00 in0.0 mm 0.00 in0.0 mm 0.00 in0.0 mm
10:50 PM 85.7°F29.8°C 70.2°F21.2°C 60% 3.2 mph SW5.1 kmh SW 6.0 mph9.7 kmh 29.94 in1013.9 mb 0.00 in0.0 mm 0.00 in0.0 mm 0.00 in0.0 mm
10:55 PM 85.5°F29.7°C 70.0°F21.1°C 60% 3.3 mph SW5.3 kmh SW 8.0 mph12.9 kmh 29.93 in1013.5 mb 0.00 in0.0 mm 0.00 in0.0 mm 0.00 in0.0 mm
11:00 PM 85.5°F29.7°C 70.5°F21.4°C 61% 3.9 mph SW6.3 kmh SW 8.0 mph12.9 kmh 29.94 in1013.9 mb 0.00 in0.0 mm 0.00 in0.0 mm 0.00 in0.0 mm
11:05 PM 85.4°F29.7°C 70.4°F21.3°C 61% 4.0 mph SW6.4 kmh SW 8.0 mph12.9 kmh 29.94 in1013.9 mb 0.00 in0.0 mm 0.00 in0.0 mm 0.00 in0.0 mm
11:10 PM 85.4°F29.7°C 70.4°F21.3°C 61% 3.6 mph SW5.8 kmh SW 9.0 mph14.5 kmh 29.94 in1013.9 mb 0.00 in0.0 mm 0.00 in0.0 mm 0.00 in0.0 mm
11:15 PM 85.2°F29.6°C 70.2°F21.2°C 61% 3.7 mph SW6.0 kmh SW 10.0 mph16.1 kmh 29.95 in1014.2 mb 0.00 in0.0 mm 0.00 in0.0 mm 0.00 in0.0 mm
11:20 PM 85.2°F29.6°C 70.7°F21.5°C 62% 3.4 mph SW5.5 kmh SW 10.0 mph16.1 kmh 29.94 in1013.9 mb 0.00 in0.0 mm 0.00 in0.0 mm 0.00 in0.0 mm
11:25 PM 84.9°F29.4°C 70.4°F21.3°C 62% 4.6 mph SW7.4 kmh SW 8.0 mph12.9 kmh 29.94 in1013.9 mb 0.00 in0.0 mm 0.00 in0.0 mm 0.00 in0.0 mm
11:30 PM 84.6°F29.2°C 70.6°F21.4°C 63% 3.1 mph SW5.0 kmh SW 8.0 mph12.9 kmh 29.95 in1014.2 mb 0.00 in0.0 mm 0.00 in0.0 mm 0.00 in0.0 mm
11:35 PM 84.5°F29.2°C 70.5°F21.4°C 63% 3.6 mph SW5.8 kmh SW 7.0 mph11.3 kmh 29.95 in1014.2 mb 0.00 in0.0 mm 0.00 in0.0 mm 0.00 in0.0 mm
11:40 PM 84.3°F29.1°C 70.8°F21.6°C 64% 4.9 mph SW7.9 kmh SW 9.0 mph14.5 kmh 29.94 in1013.9 mb 0.00 in0.0 mm 0.00 in0.0 mm 0.00 in0.0 mm
11:45 PM 84.1°F28.9°C 70.6°F21.4°C 64% 3.6 mph SW5.8 kmh SW 9.0 mph14.5 kmh 29.95 in1014.2 mb 0.00 in0.0 mm 0.00 in0.0 mm 0.00 in0.0 mm
11:50 PM 84.1°F28.9°C 70.6°F21.4°C 64% 3.2 mph SW5.1 kmh SW 10.0 mph16.1 kmh 29.95 in1014.2 mb 0.00 in0.0 mm 0.00 in0.0 mm 0.00 in0.0 mm
11:55 PM 84.1°F28.9°C 70.6°F21.4°C 64% 3.8 mph SW6.1 kmh SW 10.0 mph16.1 kmh 29.95 in1014.2 mb 0.00 in0.0 mm 0.00 in0.0 mm 0.00 in0.0 mm